Time;durP1;ratioP1;P1;durP2;ratioP2;P2;SDS_P1;SDS_P2;PMS_P1;PMS_P2;Temp;Humidity;BMP_temperature;BMP_pressure;BME280_temperature;BME280_humidity;BME280_pressure;Samples;Min_cycle;Max_cycle;Signal;HPM_P1;HPM_P2
2021/12/21 00:00:34;;;;;;;29.33;5.07;;;;;;;;;;4960494;28;20054;-30
2021/12/21 00:03:01;;;;;;;31.13;4.82;;;;;;;;;;4977636;28;20051;-30
2021/12/21 00:05:29;;;;;;;33.65;5.63;;;;;;;;;;4977689;28;20034;-30
2021/12/21 00:07:57;;;;;;;41.67;5.18;;;;;;;;;;4977376;28;20102;-30
2021/12/21 00:10:26;;;;;;;31.23;4.78;;;;;;;;;;4977864;28;20023;-30
2021/12/21 00:15:34;;;;;;;40.25;4.65;;;;;;;;;;4977623;28;20039;-30
2021/12/21 00:26:23;;;;;;;35.42;5.63;;;;;;;;;;4899285;29;20052;-31
2021/12/21 00:29:01;;;;;;;31.60;5.85;;;;;;;;;;4899656;29;20276;-30
2021/12/21 00:31:30;;;;;;;41.72;4.85;;;;;;;;;;4941948;28;20039;-30
2021/12/21 00:33:58;;;;;;;31.25;5.05;;;;;;;;;;4959819;28;20030;-30
2021/12/21 00:36:25;;;;;;;43.08;4.65;;;;;;;;;;4977141;28;20398;-31
2021/12/21 00:38:52;;;;;;;29.20;4.38;;;;;;;;;;4976425;28;20039;-30
2021/12/21 00:41:18;;;;;;;28.23;4.03;;;;;;;;;;4959803;28;20515;-30
2021/12/21 00:43:44;;;;;;;25.13;4.03;;;;;;;;;;4976765;28;20101;-30
2021/12/21 00:46:11;;;;;;;33.97;5.05;;;;;;;;;;4976674;28;20037;-30
2021/12/21 00:48:41;;;;;;;23.98;5.45;;;;;;;;;;4977255;28;20211;-30
2021/12/21 00:51:07;;;;;;;26.90;4.20;;;;;;;;;;4976656;28;20078;-30
2021/12/21 00:53:36;;;;;;;22.15;4.50;;;;;;;;;;4976535;28;20029;-30
2021/12/21 00:56:03;;;;;;;20.83;4.57;;;;;;;;;;4976533;28;20034;-31
2021/12/21 00:58:29;;;;;;;34.25;5.00;;;;;;;;;;4977023;28;20048;-30
2021/12/21 01:00:56;;;;;;;35.63;7.07;;;;;;;;;;4976524;28;20054;-31
2021/12/21 01:03:23;;;;;;;29.55;6.03;;;;;;;;;;4976113;28;20086;-30
2021/12/21 01:06:11;;;;;;;36.60;6.18;;;;;;;;;;4976351;28;20031;-30
2021/12/21 01:11:29;;;;;;;20.00;3.70;;;;;;;;;;4976904;28;20498;-30
2021/12/21 01:19:20;;;;;;;22.20;4.40;;;;;;;;;;4976224;28;20113;-30
2021/12/21 01:22:08;;;;;;;20.45;3.60;;;;;;;;;;4976056;28;20105;-30
2021/12/21 01:24:41;;;;;;;17.02;3.67;;;;;;;;;;4976395;28;20101;-30
2021/12/21 01:34:58;;;;;;;18.42;3.70;;;;;;;;;;4975998;28;20118;-31
2021/12/21 01:40:13;;;;;;;30.50;4.05;;;;;;;;;;4975898;28;20466;-30
2021/12/21 01:50:36;;;;;;;17.23;3.95;;;;;;;;;;4975065;28;20073;-31
2021/12/21 01:53:02;;;;;;;25.15;4.50;;;;;;;;;;4975775;28;20034;-32
2021/12/21 01:55:28;;;;;;;19.88;5.43;;;;;;;;;;4976025;28;20031;-30
2021/12/21 01:57:54;;;;;;;18.38;3.38;;;;;;;;;;4975957;28;20046;-30
2021/12/21 02:00:21;;;;;;;18.98;4.03;;;;;;;;;;4975927;28;20473;-31
2021/12/21 02:02:47;;;;;;;29.90;4.93;;;;;;;;;;4975297;28;20121;-31
2021/12/21 02:05:13;;;;;;;17.92;3.30;;;;;;;;;;4975565;28;20039;-30
2021/12/21 02:07:40;;;;;;;26.70;3.85;;;;;;;;;;4975556;28;20035;-30
2021/12/21 02:10:06;;;;;;;22.75;3.90;;;;;;;;;;4975595;28;20042;-31
2021/12/21 02:12:35;;;;;;;16.80;5.72;;;;;;;;;;4975420;28;20037;-30
2021/12/21 02:15:02;;;;;;;17.05;3.70;;;;;;;;;;4975506;28;20023;-31
2021/12/21 02:20:38;;;;;;;31.73;4.30;;;;;;;;;;4961161;28;20109;-30
2021/12/21 02:23:10;;;;;;;23.38;3.25;;;;;;;;;;4975662;28;20034;-31
2021/12/21 02:28:34;;;;;;;28.48;5.60;;;;;;;;;;4975994;28;20038;-31
2021/12/21 02:31:00;;;;;;;21.00;4.60;;;;;;;;;;4975349;28;20034;-30
2021/12/21 02:33:27;;;;;;;13.98;3.25;;;;;;;;;;4975484;28;20366;-30
2021/12/21 02:35:54;;;;;;;22.00;4.15;;;;;;;;;;4975290;28;20049;-30
2021/12/21 02:38:21;;;;;;;20.00;3.80;;;;;;;;;;4975359;28;20031;-31
2021/12/21 02:40:47;;;;;;;20.88;5.00;;;;;;;;;;4958301;28;20031;-31
2021/12/21 02:43:13;;;;;;;19.25;4.22;;;;;;;;;;4975170;28;20023;-30
2021/12/21 02:45:40;;;;;;;20.10;3.53;;;;;;;;;;4958119;28;20043;-31
2021/12/21 02:48:07;;;;;;;18.02;3.70;;;;;;;;;;4975262;28;20034;-30
2021/12/21 02:50:33;;;;;;;15.68;2.92;;;;;;;;;;4975229;28;20362;-30
2021/12/21 02:53:00;;;;;;;23.98;3.85;;;;;;;;;;4975103;28;20023;-30
2021/12/21 02:55:26;;;;;;;16.92;3.65;;;;;;;;;;4975132;28;20026;-30
2021/12/21 02:57:53;;;;;;;19.02;3.90;;;;;;;;;;4975663;28;20034;-30
2021/12/21 03:00:19;;;;;;;20.25;3.85;;;;;;;;;;4975139;28;20031;-31
2021/12/21 03:02:45;;;;;;;24.58;4.07;;;;;;;;;;4977789;28;20061;-31
2021/12/21 03:05:12;;;;;;;14.70;3.30;;;;;;;;;;4978651;28;20042;-31
2021/12/21 03:08:26;;;;;;;13.35;2.70;;;;;;;;;;4978767;28;20031;-31
2021/12/21 03:10:26;;;;;;;18.17;3.08;;;;;;;;;;4965009;28;20039;-31
2021/12/21 03:15:53;;;;;;;22.20;3.50;;;;;;;;;;4978484;28;20101;-31
2021/12/21 03:18:20;;;;;;;13.10;3.40;;;;;;;;;;4978628;28;20117;-31
2021/12/21 03:20:46;;;;;;;19.73;3.38;;;;;;;;;;4978603;28;20027;-31
2021/12/21 03:23:12;;;;;;;22.15;3.47;;;;;;;;;;4978212;28;20041;-30
2021/12/21 03:25:38;;;;;;;13.65;3.08;;;;;;;;;;4978448;28;20027;-31
2021/12/21 03:28:04;;;;;;;16.45;3.90;;;;;;;;;;4978476;28;20102;-31
2021/12/21 03:30:31;;;;;;;13.98;3.65;;;;;;;;;;4978161;28;20023;-30
2021/12/21 03:32:57;;;;;;;12.23;3.45;;;;;;;;;;4978334;28;20486;-31
2021/12/21 03:35:23;;;;;;;17.95;3.53;;;;;;;;;;4978052;28;20023;-31
2021/12/21 03:37:49;;;;;;;17.10;3.95;;;;;;;;;;4978602;28;20233;-31
2021/12/21 03:40:16;;;;;;;18.13;3.28;;;;;;;;;;4977916;28;20106;-30
2021/12/21 03:42:42;;;;;;;14.75;2.92;;;;;;;;;;4977921;28;20026;-31
2021/12/21 03:45:08;;;;;;;13.90;4.35;;;;;;;;;;4960889;28;20046;-31
2021/12/21 03:47:35;;;;;;;12.65;3.53;;;;;;;;;;4977795;28;20038;-30
2021/12/21 03:50:03;;;;;;;11.82;3.15;;;;;;;;;;4977871;28;20023;-30
2021/12/21 03:52:30;;;;;;;16.50;3.78;;;;;;;;;;4961676;28;20460;-31
2021/12/21 03:55:02;;;;;;;20.42;3.42;;;;;;;;;;4978030;28;20366;-31
2021/12/21 03:57:29;;;;;;;12.40;2.75;;;;;;;;;;4977648;28;20035;-30
2021/12/21 03:59:55;;;;;;;15.27;3.75;;;;;;;;;;4977922;28;20374;-31
2021/12/21 04:02:24;;;;;;;13.60;3.50;;;;;;;;;;4977260;28;20042;-31
2021/12/21 04:04:52;;;;;;;21.85;3.38;;;;;;;;;;4977841;28;20411;-30
2021/12/21 04:07:18;;;;;;;14.45;3.08;;;;;;;;;;4961055;28;20360;-30
2021/12/21 04:09:44;;;;;;;14.60;3.33;;;;;;;;;;4977432;28;20027;-30
2021/12/21 04:12:11;;;;;;;13.32;2.90;;;;;;;;;;4977555;28;20031;-30
2021/12/21 04:14:37;;;;;;;6.93;2.45;;;;;;;;;;4976929;28;20094;-31
2021/12/21 04:17:04;;;;;;;12.40;3.08;;;;;;;;;;4977298;28;20066;-31
2021/12/21 04:19:30;;;;;;;17.20;2.45;;;;;;;;;;4977606;28;20035;-31
2021/12/21 04:21:56;;;;;;;15.82;2.90;;;;;;;;;;4977387;28;20046;-31
2021/12/21 04:24:23;;;;;;;14.50;3.22;;;;;;;;;;4977197;28;20362;-31
2021/12/21 04:26:49;;;;;;;12.45;2.72;;;;;;;;;;4977054;28;20034;-30
2021/12/21 04:29:15;;;;;;;11.85;2.53;;;;;;;;;;4977316;28;20034;-31
2021/12/21 04:31:42;;;;;;;14.45;3.55;;;;;;;;;;4976967;28;20078;-31
2021/12/21 04:34:08;;;;;;;11.63;3.05;;;;;;;;;;4977002;28;20346;-31
2021/12/21 04:36:34;;;;;;;13.60;4.45;;;;;;;;;;4977003;28;20023;-31
2021/12/21 04:39:04;;;;;;;12.55;3.10;;;;;;;;;;4959813;28;20042;-31
2021/12/21 04:41:30;;;;;;;14.82;3.40;;;;;;;;;;4976804;28;20035;-31
2021/12/21 04:43:58;;;;;;;10.65;3.08;;;;;;;;;;4976726;28;20045;-31
2021/12/21 04:46:25;;;;;;;12.25;3.30;;;;;;;;;;4976661;28;20097;-31
2021/12/21 04:48:51;;;;;;;10.98;3.08;;;;;;;;;;4976689;28;20054;-31
2021/12/21 04:51:18;;;;;;;10.57;2.90;;;;;;;;;;4960091;28;20027;-31
2021/12/21 04:53:44;;;;;;;12.43;3.25;;;;;;;;;;4976587;28;20027;-39
2021/12/21 04:56:11;;;;;;;14.00;2.83;;;;;;;;;;4976517;28;20035;-32
2021/12/21 04:58:37;;;;;;;14.68;3.00;;;;;;;;;;4976489;28;20031;-31
2021/12/21 05:01:04;;;;;;;12.15;2.65;;;;;;;;;;4976406;28;20030;-31
2021/12/21 05:03:30;;;;;;;14.43;2.60;;;;;;;;;;4959019;28;20087;-31
2021/12/21 05:05:56;;;;;;;10.55;2.72;;;;;;;;;;4976835;28;20030;-31
2021/12/21 05:08:26;;;;;;;10.75;2.55;;;;;;;;;;4976335;28;20027;-31
2021/12/21 05:10:57;;;;;;;17.33;3.15;;;;;;;;;;4959121;28;20046;-31
2021/12/21 05:13:25;;;;;;;9.85;2.35;;;;;;;;;;4976077;28;20030;-31
2021/12/21 05:15:52;;;;;;;10.25;2.03;;;;;;;;;;4976107;28;20081;-31
2021/12/21 05:18:19;;;;;;;11.20;3.40;;;;;;;;;;4976339;28;20034;-31
2021/12/21 05:20:45;;;;;;;16.80;2.78;;;;;;;;;;4976068;28;20109;-31
2021/12/21 05:23:11;;;;;;;14.07;2.90;;;;;;;;;;4976222;28;20030;-32
2021/12/21 05:25:38;;;;;;;10.77;2.30;;;;;;;;;;4958953;28;20041;-30
2021/12/21 05:28:05;;;;;;;9.48;2.38;;;;;;;;;;4959096;28;20030;-31
2021/12/21 05:30:32;;;;;;;8.68;3.10;;;;;;;;;;4976074;28;20029;-31
2021/12/21 05:32:58;;;;;;;16.42;2.70;;;;;;;;;;4975780;28;20027;-31
2021/12/21 05:35:26;;;;;;;21.00;4.00;;;;;;;;;;4975799;28;20098;-31
2021/12/21 05:37:57;;;;;;;15.23;2.60;;;;;;;;;;4976050;28;20335;-30
2021/12/21 05:40:30;;;;;;;10.20;2.53;;;;;;;;;;4975772;28;20034;-31
2021/12/21 05:42:56;;;;;;;13.40;2.70;;;;;;;;;;4958657;28;20034;-31
2021/12/21 05:45:22;;;;;;;11.35;2.53;;;;;;;;;;4976018;28;20105;-33
2021/12/21 05:47:49;;;;;;;13.70;2.85;;;;;;;;;;4975730;28;20117;-30
2021/12/21 05:50:17;;;;;;;8.23;2.38;;;;;;;;;;4975651;28;20030;-30
2021/12/21 05:52:44;;;;;;;15.27;2.97;;;;;;;;;;4975570;28;20028;-31
2021/12/21 05:55:10;;;;;;;13.40;2.50;;;;;;;;;;4958581;28;20061;-30
2021/12/21 05:57:36;;;;;;;13.45;3.80;;;;;;;;;;4976220;28;20019;-31
2021/12/21 06:00:05;;;;;;;11.43;2.65;;;;;;;;;;4975571;28;20454;-31
2021/12/21 06:02:31;;;;;;;8.63;2.60;;;;;;;;;;4975475;28;20395;-31
2021/12/21 06:04:57;;;;;;;9.77;2.78;;;;;;;;;;4976059;28;20034;-30
2021/12/21 06:07:23;;;;;;;10.75;2.92;;;;;;;;;;4975961;28;20023;-31
2021/12/21 06:09:50;;;;;;;6.07;2.25;;;;;;;;;;4976031;28;20362;-31
2021/12/21 06:23:27;;;;;;;5.07;2.50;;;;;;;;;;4975956;28;20066;-30
2021/12/21 06:25:54;;;;;;;15.80;2.55;;;;;;;;;;4975193;28;20058;-30
2021/12/21 06:28:21;;;;;;;7.20;2.60;;;;;;;;;;4975385;28;20357;-30
2021/12/21 06:30:48;;;;;;;20.85;3.45;;;;;;;;;;4975485;28;20041;-30
2021/12/21 06:33:14;;;;;;;11.63;3.08;;;;;;;;;;4975827;28;20029;-32
2021/12/21 06:35:41;;;;;;;17.25;3.72;;;;;;;;;;4975480;28;20115;-31
2021/12/21 06:38:07;;;;;;;14.57;3.17;;;;;;;;;;4979509;28;20049;-31
2021/12/21 06:40:33;;;;;;;13.70;3.03;;;;;;;;;;4979274;28;20347;-31
2021/12/21 06:43:02;;;;;;;12.40;2.30;;;;;;;;;;4979049;28;20041;-31
2021/12/21 06:45:42;;;;;;;25.48;2.85;;;;;;;;;;4962043;28;20023;-31
2021/12/21 06:53:41;;;;;;;13.57;3.65;;;;;;;;;;4979026;28;20048;-31
2021/12/21 06:56:07;;;;;;;14.35;2.80;;;;;;;;;;4979319;28;20090;-31
2021/12/21 06:58:34;;;;;;;21.33;4.30;;;;;;;;;;4961741;28;20458;-31
2021/12/21 07:01:00;;;;;;;15.10;3.50;;;;;;;;;;4978557;28;20123;-31
2021/12/21 07:03:27;;;;;;;18.70;3.30;;;;;;;;;;4978259;28;20100;-31
2021/12/21 07:05:54;;;;;;;12.10;2.30;;;;;;;;;;4978496;28;20031;-30
2021/12/21 07:08:27;;;;;;;10.70;3.38;;;;;;;;;;4961486;28;20369;-31
2021/12/21 07:11:08;;;;;;;12.32;3.35;;;;;;;;;;4978904;28;20042;-31
2021/12/21 07:19:04;;;;;;;13.50;2.67;;;;;;;;;;4978481;28;20042;-31
2021/12/21 07:21:30;;;;;;;16.25;3.55;;;;;;;;;;4977600;28;20466;-31
2021/12/21 07:23:57;;;;;;;12.75;3.47;;;;;;;;;;4977594;28;20046;-31
2021/12/21 07:26:23;;;;;;;15.90;2.88;;;;;;;;;;4977692;28;20073;-31
2021/12/21 07:28:49;;;;;;;14.38;2.85;;;;;;;;;;4977741;28;20026;-31
2021/12/21 07:31:15;;;;;;;20.58;4.07;;;;;;;;;;4978249;28;20161;-31
2021/12/21 07:33:42;;;;;;;13.55;2.00;;;;;;;;;;4960420;28;20494;-31
2021/12/21 07:36:08;;;;;;;12.27;2.85;;;;;;;;;;4977194;28;20446;-31
2021/12/21 07:38:34;;;;;;;22.73;3.58;;;;;;;;;;4944258;28;20031;-31
2021/12/21 07:41:01;;;;;;;17.25;2.40;;;;;;;;;;4977176;28;20038;-31
2021/12/21 07:43:29;;;;;;;16.40;3.80;;;;;;;;;;4977041;28;20106;-30
2021/12/21 07:45:56;;;;;;;18.75;3.42;;;;;;;;;;4977053;28;20129;-30
2021/12/21 07:48:22;;;;;;;17.10;3.25;;;;;;;;;;4976297;28;20046;-31
2021/12/21 07:50:49;;;;;;;13.48;3.28;;;;;;;;;;4977371;28;20057;-30
2021/12/21 07:53:16;;;;;;;18.60;3.53;;;;;;;;;;4977397;28;20019;-31
2021/12/21 07:55:43;;;;;;;12.95;2.80;;;;;;;;;;4977397;28;20018;-31
2021/12/21 07:58:10;;;;;;;20.58;3.67;;;;;;;;;;4960050;28;20122;-30
2021/12/21 08:00:36;;;;;;;24.23;4.90;;;;;;;;;;4977254;28;20347;-31
2021/12/21 08:03:03;;;;;;;27.88;5.15;;;;;;;;;;4977013;28;20051;-30
2021/12/21 08:05:32;;;;;;;29.92;5.38;;;;;;;;;;4977422;28;20031;-31
2021/12/21 08:08:09;;;;;;;45.70;4.53;;;;;;;;;;4977311;28;20365;-30
2021/12/21 08:10:45;;;;;;;20.48;3.10;;;;;;;;;;4977456;28;20057;-30
2021/12/21 08:13:12;;;;;;;20.63;3.30;;;;;;;;;;4961579;28;20033;-31
2021/12/21 08:15:38;;;;;;;18.10;3.78;;;;;;;;;;4960138;28;20528;-30
2021/12/21 08:18:04;;;;;;;25.25;2.88;;;;;;;;;;4977216;28;20054;-30
2021/12/21 08:20:31;;;;;;;30.08;3.72;;;;;;;;;;4976870;28;20062;-31
2021/12/21 08:22:57;;;;;;;18.13;3.15;;;;;;;;;;4977046;28;20026;-30
2021/12/21 08:25:28;;;;;;;21.73;3.40;;;;;;;;;;4977102;28;20030;-31
2021/12/21 08:27:55;;;;;;;33.97;4.68;;;;;;;;;;4977192;28;20018;-31
2021/12/21 08:30:21;;;;;;;35.17;4.15;;;;;;;;;;4977083;28;20049;-30
2021/12/21 08:32:47;;;;;;;20.35;3.55;;;;;;;;;;4976716;28;20233;-30
2021/12/21 08:35:13;;;;;;;25.55;3.45;;;;;;;;;;4976989;28;20027;-31
2021/12/21 08:37:49;;;;;;;36.67;4.47;;;;;;;;;;4976548;28;20031;-30
2021/12/21 08:40:16;;;;;;;35.00;5.10;;;;;;;;;;4977029;28;20097;-30
2021/12/21 08:42:45;;;;;;;37.33;3.75;;;;;;;;;;4959136;28;20031;-31
2021/12/21 08:45:11;;;;;;;26.23;3.58;;;;;;;;;;4976298;28;20038;-31
2021/12/21 08:47:38;;;;;;;28.25;3.75;;;;;;;;;;4976312;28;20066;-30
2021/12/21 08:50:05;;;;;;;69.50;8.43;;;;;;;;;;4976799;28;20154;-30
2021/12/21 08:52:32;;;;;;;22.17;4.88;;;;;;;;;;4976138;28;20089;-31
2021/12/21 08:54:59;;;;;;;26.95;4.35;;;;;;;;;;4976283;28;20093;-31
2021/12/21 08:57:25;;;;;;;24.05;6.65;;;;;;;;;;4959607;28;20037;-31
2021/12/21 08:59:51;;;;;;;17.52;3.67;;;;;;;;;;4976094;28;20086;-31
2021/12/21 09:02:18;;;;;;;21.80;3.67;;;;;;;;;;4976288;28;20035;-31
2021/12/21 09:04:44;;;;;;;17.20;3.08;;;;;;;;;;4976365;28;20039;-31
2021/12/21 09:07:10;;;;;;;12.18;2.92;;;;;;;;;;4976175;28;20038;-32
2021/12/21 09:09:37;;;;;;;17.30;5.03;;;;;;;;;;4976574;28;20466;-31
2021/12/21 09:12:03;;;;;;;22.25;3.13;;;;;;;;;;4976124;28;20535;-31
2021/12/21 09:14:32;;;;;;;17.15;3.22;;;;;;;;;;4958899;28;20052;-31
2021/12/21 09:17:01;;;;;;;24.60;3.28;;;;;;;;;;4976100;28;20023;-31
2021/12/21 09:19:28;;;;;;;21.17;4.20;;;;;;;;;;4976420;28;20105;-31
2021/12/21 09:21:54;;;;;;;27.77;3.47;;;;;;;;;;4976401;28;20443;-31
2021/12/21 09:24:20;;;;;;;18.67;3.08;;;;;;;;;;4976039;28;20121;-30
2021/12/21 09:26:47;;;;;;;21.23;3.40;;;;;;;;;;4975838;28;20026;-30
2021/12/21 09:29:13;;;;;;;22.52;3.88;;;;;;;;;;4975815;28;20105;-30
2021/12/21 09:31:39;;;;;;;33.22;3.83;;;;;;;;;;4976190;28;20098;-31
2021/12/21 09:34:05;;;;;;;30.15;3.85;;;;;;;;;;4976075;28;20038;-30
2021/12/21 09:36:34;;;;;;;21.52;3.65;;;;;;;;;;4958755;28;20335;-30
2021/12/21 09:39:00;;;;;;;25.40;3.55;;;;;;;;;;4958712;28;20442;-30
2021/12/21 09:41:26;;;;;;;33.67;3.15;;;;;;;;;;4975742;28;20406;-30
2021/12/21 09:43:53;;;;;;;26.23;4.50;;;;;;;;;;4975687;28;20064;-31
2021/12/21 09:46:19;;;;;;;34.60;3.42;;;;;;;;;;4942763;28;20031;-30
2021/12/21 09:48:45;;;;;;;38.20;4.63;;;;;;;;;;4958567;28;20026;-30
2021/12/21 09:51:12;;;;;;;27.67;4.00;;;;;;;;;;4958533;28;20061;-30
2021/12/21 09:53:38;;;;;;;39.03;3.75;;;;;;;;;;4975517;28;20022;-32
2021/12/21 09:56:05;;;;;;;25.85;4.82;;;;;;;;;;4958625;28;20022;-31
2021/12/21 09:58:32;;;;;;;18.60;4.10;;;;;;;;;;4975594;28;20473;-31
2021/12/21 10:00:58;;;;;;;19.05;4.18;;;;;;;;;;4975630;28;20331;-31
2021/12/21 10:03:24;;;;;;;20.73;3.92;;;;;;;;;;4975292;28;20126;-31
2021/12/21 10:06:01;;;;;;;26.92;5.97;;;;;;;;;;4975381;28;20035;-31
2021/12/21 10:08:30;;;;;;;14.52;3.47;;;;;;;;;;4975488;28;20041;-30
2021/12/21 10:10:56;;;;;;;22.10;3.47;;;;;;;;;;4975800;28;20027;-31
2021/12/21 10:13:24;;;;;;;25.75;3.95;;;;;;;;;;4962309;28;20113;-31
2021/12/21 10:15:59;;;;;;;34.67;5.13;;;;;;;;;;4979682;28;20473;-31
2021/12/21 10:18:27;;;;;;;32.05;5.75;;;;;;;;;;4979427;28;20022;-29
2021/12/21 10:20:54;;;;;;;20.98;4.28;;;;;;;;;;4979679;28;20023;-30
2021/12/21 10:23:23;;;;;;;27.50;4.10;;;;;;;;;;4979518;28;20361;-30
2021/12/21 10:26:12;;;;;;;29.65;3.90;;;;;;;;;;4979111;28;20030;-30
2021/12/21 10:28:43;;;;;;;21.33;3.45;;;;;;;;;;4979665;28;20026;-30
2021/12/21 10:31:11;;;;;;;19.45;3.55;;;;;;;;;;4979386;28;20085;-31
2021/12/21 10:33:39;;;;;;;33.60;4.95;;;;;;;;;;4979254;28;20034;-31
2021/12/21 10:36:06;;;;;;;25.85;4.00;;;;;;;;;;4961870;28;20019;-30
2021/12/21 10:38:36;;;;;;;26.15;4.15;;;;;;;;;;4978934;28;20033;-30
2021/12/21 10:41:07;;;;;;;23.08;3.92;;;;;;;;;;4979386;28;20338;-30
2021/12/21 10:43:33;;;;;;;39.78;4.35;;;;;;;;;;4978713;28;20023;-30
2021/12/21 10:46:00;;;;;;;25.45;3.92;;;;;;;;;;4979031;28;20085;-30
2021/12/21 10:48:26;;;;;;;38.45;4.13;;;;;;;;;;4961678;28;20054;-30
2021/12/21 10:50:53;;;;;;;22.65;4.10;;;;;;;;;;4978757;28;20023;-30
2021/12/21 10:53:20;;;;;;;18.48;4.05;;;;;;;;;;4978855;28;20046;-31
2021/12/21 10:55:47;;;;;;;37.85;4.60;;;;;;;;;;4961841;28;20050;-30
2021/12/21 10:58:18;;;;;;;30.52;4.93;;;;;;;;;;4979244;28;20398;-30
2021/12/21 11:00:56;;;;;;;31.15;4.50;;;;;;;;;;4978867;28;20075;-31
2021/12/21 11:03:30;;;;;;;25.55;4.28;;;;;;;;;;4978179;28;20047;-30
2021/12/21 11:06:07;;;;;;;36.08;4.45;;;;;;;;;;4961337;28;20041;-30
2021/12/21 11:08:37;;;;;;;37.22;5.93;;;;;;;;;;4961329;28;20031;-30
2021/12/21 11:11:09;;;;;;;31.90;3.80;;;;;;;;;;4978722;28;20027;-30
2021/12/21 11:13:35;;;;;;;31.25;4.07;;;;;;;;;;4978570;28;20027;-29
2021/12/21 11:16:06;;;;;;;20.95;3.70;;;;;;;;;;4978252;28;20175;-31
2021/12/21 11:18:36;;;;;;;33.92;5.90;;;;;;;;;;4978209;28;20111;-30
2021/12/21 11:21:04;;;;;;;34.70;4.82;;;;;;;;;;4978224;28;20067;-31
2021/12/21 11:23:30;;;;;;;23.08;3.65;;;;;;;;;;4978222;28;20035;-31
2021/12/21 11:25:58;;;;;;;20.42;4.78;;;;;;;;;;4978718;28;20023;-32
2021/12/21 11:28:29;;;;;;;36.53;4.30;;;;;;;;;;4978170;28;20033;-30
2021/12/21 11:31:00;;;;;;;20.85;3.30;;;;;;;;;;4960949;28;20141;-30
2021/12/21 11:33:27;;;;;;;32.15;5.38;;;;;;;;;;4960795;28;20050;-29
2021/12/21 11:38:39;;;;;;;42.85;5.03;;;;;;;;;;4978073;28;20046;-29
2021/12/21 11:41:06;;;;;;;24.92;4.05;;;;;;;;;;4977867;28;20022;-30
2021/12/21 11:43:39;;;;;;;29.30;3.95;;;;;;;;;;4978003;28;20422;-30
2021/12/21 11:46:07;;;;;;;21.17;3.72;;;;;;;;;;4960702;28;20038;-30
2021/12/21 11:48:38;;;;;;;25.05;3.85;;;;;;;;;;4977681;28;20102;-30
2021/12/21 11:51:07;;;;;;;21.38;3.95;;;;;;;;;;4960645;28;20035;-30
2021/12/21 11:53:33;;;;;;;22.73;4.30;;;;;;;;;;4960559;28;20031;-32
2021/12/21 11:56:00;;;;;;;27.10;6.15;;;;;;;;;;4960664;28;20378;-30
2021/12/21 11:58:27;;;;;;;21.30;3.42;;;;;;;;;;4977854;28;20023;-30
2021/12/21 12:00:59;;;;;;;29.42;4.05;;;;;;;;;;4977832;28;20051;-31
2021/12/21 12:03:27;;;;;;;35.00;5.90;;;;;;;;;;4960094;28;20055;-30
2021/12/21 12:05:55;;;;;;;33.25;3.95;;;;;;;;;;4977369;28;20022;-30
2021/12/21 12:08:22;;;;;;;23.52;4.15;;;;;;;;;;4977324;28;20031;-30
2021/12/21 12:10:48;;;;;;;23.63;4.60;;;;;;;;;;4977353;28;20034;-31
2021/12/21 12:13:16;;;;;;;32.10;5.25;;;;;;;;;;4977163;28;20027;-30
2021/12/21 12:16:06;;;;;;;35.55;5.07;;;;;;;;;;4977181;28;20458;-30
2021/12/21 12:18:34;;;;;;;39.30;4.25;;;;;;;;;;4965906;28;20051;-31
2021/12/21 12:21:14;;;;;;;32.72;4.35;;;;;;;;;;4977409;28;20031;-31
2021/12/21 12:23:47;;;;;;;25.00;4.05;;;;;;;;;;4960138;28;20040;-31
2021/12/21 12:26:20;;;;;;;26.02;3.70;;;;;;;;;;4977357;28;20477;-30
2021/12/21 12:28:47;;;;;;;40.20;5.20;;;;;;;;;;4959905;28;20023;-31
2021/12/21 12:31:26;;;;;;;40.63;4.70;;;;;;;;;;4976930;28;20050;-31
2021/12/21 12:33:52;;;;;;;33.30;4.05;;;;;;;;;;4976058;28;20022;-30
2021/12/21 12:36:19;;;;;;;29.17;5.10;;;;;;;;;;4977134;28;20030;-31
2021/12/21 12:38:47;;;;;;;28.08;4.13;;;;;;;;;;4976827;28;20073;-31
2021/12/21 12:41:14;;;;;;;33.88;5.05;;;;;;;;;;4977248;28;20047;-32
2021/12/21 12:43:44;;;;;;;35.40;4.70;;;;;;;;;;4959413;28;20041;-29
2021/12/21 12:46:22;;;;;;;34.90;5.55;;;;;;;;;;4976271;28;20031;-31
2021/12/21 12:48:48;;;;;;;25.92;3.95;;;;;;;;;;4976968;28;20027;-30
2021/12/21 12:51:29;;;;;;;42.42;4.03;;;;;;;;;;4976404;28;20027;-28
2021/12/21 12:53:56;;;;;;;27.35;4.28;;;;;;;;;;4976878;28;20053;-31
2021/12/21 12:56:23;;;;;;;20.02;3.35;;;;;;;;;;4959239;28;20049;-30
2021/12/21 12:58:51;;;;;;;28.15;4.50;;;;;;;;;;4977056;28;20027;-32
2021/12/21 13:01:23;;;;;;;30.67;4.75;;;;;;;;;;4976251;28;20026;-31
2021/12/21 13:03:51;;;;;;;31.75;3.67;;;;;;;;;;4976021;28;20145;-30
2021/12/21 13:06:19;;;;;;;27.65;4.57;;;;;;;;;;4976134;28;20030;-30
2021/12/21 13:08:46;;;;;;;33.92;5.65;;;;;;;;;;4976360;28;20358;-31
2021/12/21 13:11:13;;;;;;;26.08;4.30;;;;;;;;;;4976083;28;20061;-31
2021/12/21 13:13:39;;;;;;;55.13;5.22;;;;;;;;;;4976352;28;20027;-31
2021/12/21 13:16:25;;;;;;;26.33;4.10;;;;;;;;;;4976285;28;20362;-32
2021/12/21 13:18:54;;;;;;;31.40;4.55;;;;;;;;;;4976072;28;20037;-32
2021/12/21 13:21:28;;;;;;;23.38;3.63;;;;;;;;;;4975954;28;20477;-31
2021/12/21 13:24:09;;;;;;;30.23;5.35;;;;;;;;;;4958885;28;20046;-32
2021/12/21 13:26:41;;;;;;;21.70;3.90;;;;;;;;;;4976012;28;20061;-32
2021/12/21 13:29:10;;;;;;;44.35;4.75;;;;;;;;;;4975998;28;20389;-32
2021/12/21 13:31:37;;;;;;;22.15;3.95;;;;;;;;;;4976326;28;20065;-32
2021/12/21 13:34:05;;;;;;;28.30;4.32;;;;;;;;;;4958429;28;20087;-31
2021/12/21 13:36:32;;;;;;;39.67;4.18;;;;;;;;;;4975719;28;20023;-31
2021/12/21 13:38:59;;;;;;;27.42;3.92;;;;;;;;;;4975624;28;20030;-31
2021/12/21 13:41:25;;;;;;;27.88;4.30;;;;;;;;;;4975820;28;20035;-31
2021/12/21 13:43:59;;;;;;;30.45;4.13;;;;;;;;;;4975387;28;20034;-31
2021/12/21 13:46:25;;;;;;;38.05;4.78;;;;;;;;;;4974768;28;20037;-31
2021/12/21 13:48:56;;;;;;;25.98;4.60;;;;;;;;;;4975367;28;20033;-31
2021/12/21 13:51:23;;;;;;;30.52;4.50;;;;;;;;;;4975409;28;20031;-30
2021/12/21 13:53:54;;;;;;;23.15;3.13;;;;;;;;;;4975244;28;20022;-30
2021/12/21 13:56:26;;;;;;;22.80;3.78;;;;;;;;;;4975320;28;20044;-31
2021/12/21 13:58:56;;;;;;;28.77;4.22;;;;;;;;;;4975379;28;20398;-31
2021/12/21 14:01:30;;;;;;;26.13;3.40;;;;;;;;;;4975187;28;20039;-31
2021/12/21 14:03:58;;;;;;;32.72;4.20;;;;;;;;;;4975064;28;20074;-30
2021/12/21 14:06:26;;;;;;;30.33;5.95;;;;;;;;;;4975085;28;20113;-31
2021/12/21 14:08:53;;;;;;;35.28;4.72;;;;;;;;;;4975494;28;20086;-30
2021/12/21 14:11:21;;;;;;;45.17;7.88;;;;;;;;;;4975463;28;20030;-30
2021/12/21 14:13:49;;;;;;;22.83;4.95;;;;;;;;;;4975281;28;20110;-30
2021/12/21 14:16:18;;;;;;;31.13;4.10;;;;;;;;;;4975482;28;20041;-29
2021/12/21 14:18:48;;;;;;;28.17;3.78;;;;;;;;;;4975559;28;20037;-30
2021/12/21 14:21:16;;;;;;;32.67;5.37;;;;;;;;;;4975622;28;20130;-30
2021/12/21 14:23:43;;;;;;;27.83;3.58;;;;;;;;;;4975226;28;20031;-30
2021/12/21 14:26:13;;;;;;;27.60;5.20;;;;;;;;;;4975243;28;20093;-31
2021/12/21 14:28:55;;;;;;;35.63;4.50;;;;;;;;;;4974929;28;20039;-31
2021/12/21 14:31:23;;;;;;;21.27;3.38;;;;;;;;;;4975969;28;20035;-30
2021/12/21 14:33:50;;;;;;;32.35;4.45;;;;;;;;;;4974947;28;20030;-31
2021/12/21 14:36:17;;;;;;;28.40;4.20;;;;;;;;;;4974856;28;20023;-32
2021/12/21 14:38:51;;;;;;;59.40;5.82;;;;;;;;;;4975206;28;20338;-31
2021/12/21 14:41:25;;;;;;;42.15;6.10;;;;;;;;;;4974749;28;20027;-31
2021/12/21 14:44:08;;;;;;;26.95;5.63;;;;;;;;;;4974946;28;20065;-30
2021/12/21 14:46:37;;;;;;;40.78;4.68;;;;;;;;;;4974645;28;20155;-30
2021/12/21 14:49:08;;;;;;;55.15;7.90;;;;;;;;;;4975035;28;20140;-30
2021/12/21 14:51:38;;;;;;;42.15;6.13;;;;;;;;;;4958077;28;20027;-31
2021/12/21 14:54:08;;;;;;;44.92;6.72;;;;;;;;;;4974689;28;20031;-32
2021/12/21 14:56:38;;;;;;;34.33;5.35;;;;;;;;;;4974921;28;20319;-31
2021/12/21 14:59:06;;;;;;;40.58;5.22;;;;;;;;;;4978401;28;20069;-31
2021/12/21 15:01:40;;;;;;;33.05;4.72;;;;;;;;;;4978557;28;20086;-32
2021/12/21 15:04:17;;;;;;;34.65;4.38;;;;;;;;;;4978299;28;20058;-32
2021/12/21 15:06:43;;;;;;;44.95;5.22;;;;;;;;;;4978398;28;20037;-32
2021/12/21 15:09:10;;;;;;;30.48;4.35;;;;;;;;;;4978314;28;20046;-32
2021/12/21 15:11:36;;;;;;;37.75;5.78;;;;;;;;;;4978427;28;20023;-32
2021/12/21 15:14:02;;;;;;;42.38;6.65;;;;;;;;;;4978020;28;20027;-32
2021/12/21 15:16:29;;;;;;;29.83;3.72;;;;;;;;;;4978353;28;20045;-31
2021/12/21 15:18:55;;;;;;;32.35;5.70;;;;;;;;;;4978235;28;20075;-32
2021/12/21 15:21:22;;;;;;;35.22;6.57;;;;;;;;;;4978162;28;20039;-31
2021/12/21 15:23:48;;;;;;;38.03;5.43;;;;;;;;;;4977857;28;20043;-32
2021/12/21 15:26:14;;;;;;;32.78;4.20;;;;;;;;;;4977907;28;20066;-32
2021/12/21 15:28:41;;;;;;;65.40;6.35;;;;;;;;;;4978095;28;20018;-32
2021/12/21 15:31:07;;;;;;;71.85;7.68;;;;;;;;;;4978145;28;20035;-42
2021/12/21 15:33:33;;;;;;;51.38;5.82;;;;;;;;;;4977756;28;20023;-32
2021/12/21 15:35:59;;;;;;;31.98;4.18;;;;;;;;;;4978104;28;20031;-32
2021/12/21 15:38:26;;;;;;;45.20;5.40;;;;;;;;;;4978218;28;20101;-32
2021/12/21 15:40:53;;;;;;;65.75;8.50;;;;;;;;;;4977989;28;20027;-31
2021/12/21 15:43:20;;;;;;;51.90;6.20;;;;;;;;;;4977965;28;20018;-31
2021/12/21 15:45:46;;;;;;;38.78;5.28;;;;;;;;;;4977618;28;20034;-31
2021/12/21 15:48:13;;;;;;;29.73;5.60;;;;;;;;;;4977483;28;20110;-31